KONL/ONL METAR and TAF weather

Enter ICAO airport designator
Station Type Date Time Source
KONL METAR 2020/04/05 15:35 UTC NOAA

KONL 051535Z AUTO 18013KT 7SM OVC110 06/M01 A3002 RMK AO2 T00601011


Station Type Date Time Source
KONL Decoded METAR 2020/04/05 15:35 UTC NOAA

O'Neill / Baker Field, NE, United States (KONL) 42-28N 098-41W
Apr 05, 2020 - 11:35 AM EDT / 2020.04.05 1535 UTC
Wind: from the S (180 degrees) at 15 MPH (13 KT):0
Visibility: 7 mile(s):0
Sky conditions: overcast
Temperature: 42.8 F (6.0 C)
Dew Point: 30.0 F (-1.1 C)
Relative Humidity: 60%
Pressure (altimeter): 30.02 in. Hg (1016 hPa)
ob: KONL 051535Z AUTO 18013KT 7SM OVC110 06/M01 A3002 RMK AO2 T00601011
cycle: 15

Station Type Date Time Source
KONL TAF UTC NOAA

Error!

Example: see airport list